Winter Beach, FL

3:02 AM EST on January 26, 2015 (GMT -0500)
Vero Beach Municipal | Change Station
CLOSE
Current Station
Airport
Location: Vero Beach,
Elevation: 23 ft
Nearby Weather Stations

Elev 23 ft 27.66 °N, 80.42 °W | Updated 9 minutes ago

Partly Cloudy
Partly Cloudy
51 °F
Feels Like 51 °F
N
6
Wind Variable Wind from SSW

Today
High -- | Low -- °F
--% Chance of Precip.
Yesterday
High -- | Low -- °F
Precip. -- in
7:11 AM 5:57 PM
Waxing Crescent, 40% visible
Pressure 29.93 in
Visibility 10.0 miles
Clouds Clear
Dew Point 47 °F
Humidity 86%
Rainfall 0.00 in
Snow Depth Not available.
UV 0 out of 12
Pollen 8.90 out of 12
Air Quality Not available.
Flu Activity Not available.
METAR KVRB 260753Z AUTO 20005KT 10SM CLR 11/08 A2993 RMK AO2 SLP133 T01060083

More Conditions Fewer Conditions

Pressure 29.93 in
Visibility 10.0 miles
Clouds Clear
Dew Point 47 °F
Humidity 86%
Rainfall 0.00 in
Snow Depth Not available.
UV 0 out of 12
Pollen 8.90 out of 12
Air Quality Not available.
Flu Activity Not available.
METAR KVRB 260753Z AUTO 20005KT 10SM CLR 11/08 A2993 RMK AO2 SLP133 T01060083

More Conditions Fewer Conditions

Nowcast | as of 2:28 am EST on January 26, 2015

Scattered showers will move east at 20 mph across lake...Volusia... Seminole...Orange...Osceola...and Brevard counties between 400 am and 700 am just ahead of a cold front. As the front drops quickly southward the rain area will reach Indian River...St. Lucie...Martin and Okeechobee counties between 700 am and 1100 am. Additional details...including graphics are available online at: http://www.Srh.NOAA.Gov/mlb/blog.Php

×

10-Day Weather Forecast

Almanac

Astronomy

Jan. 26, 2015 Rise Set
Actual Time
Civil Twilight
Nautical Twilight
Astronomical Twilight
Moon
Length of Visible Light
Length of Day
Tomorrow will be .
, % of the Moon is Illuminated

Today's Extremes

State Highs State Lows

Community

WunderPhotos

Upload Photos

1,790,155 photos uploaded!

WunderBlogs® & News

Nearby

Air Quality

  Air Quality AQ Index Pollutant
Not available.

Snow Depth

Station Depth Elevation

Earthquake Activity

City Distance Mag. Time & Date
Minimum magnitude displayed is 2.5.

Coastal Water Temperatures

Place Temperature

Nearby Weather Stations